Franklin, Tennessee
Current Conditions -  °F | °C
As of 7:53 PM on Friday 19 Dec 2014 (Local Time) from KBNA Reporting Station
Overcast Overcast  
Wind Chill: 31°   Ceiling: 14000
Heat Index: 38°   Visibility: 10mi
Dew Point: 28°   Wind: 9mph
Humidity: 68%   Direction: 50°NE
Pressure: 30.24"   Gusts: NA
Location:  35.92°N, 86.87°W
Report Text: KBNA 200153Z 05008KT 10SM OVC140 03/M02 A3024 RMK AO2 SLP242 T00331022
Loading
Personal Weather Stations






























Interactive Weather Map New forecast layout! Learn more

10-Day Weather Forecast

Advertisements
Track Severe Weather on mobile